createdAt,value
2022-09-02T00:02:07.362Z,7.57
2022-09-02T00:04:34.179Z,7.85
2022-09-02T00:07:00.886Z,8.19
2022-09-02T00:09:28.366Z,8.34
2022-09-02T00:11:57.142Z,7.75
2022-09-02T00:14:29.117Z,7.91
2022-09-02T00:16:56.140Z,8.14
2022-09-02T00:19:25.607Z,8.01
2022-09-02T00:21:55.436Z,8.45
2022-09-02T00:24:23.534Z,7.89
2022-09-02T00:26:50.586Z,8.10
2022-09-02T00:29:24.263Z,8.06
2022-09-02T00:31:50.959Z,8.38
2022-09-02T00:34:18.886Z,8.05
2022-09-02T00:36:46.351Z,7.97
2022-09-02T00:39:13.006Z,8.03
2022-09-02T00:41:42.534Z,8.05
2022-09-02T00:44:13.836Z,8.28
2022-09-02T00:46:42.148Z,8.19
2022-09-02T00:49:21.234Z,8.26
2022-09-02T00:52:09.352Z,8.45
2022-09-02T00:54:49.753Z,8.39
2022-09-02T00:57:19.981Z,8.86
2022-09-02T01:00:01.130Z,8.48
2022-09-02T01:02:28.298Z,8.35
2022-09-02T01:04:55.353Z,8.35
2022-09-02T01:07:22.868Z,8.20
2022-09-02T01:09:50.194Z,8.91
2022-09-02T01:12:17.092Z,8.29
2022-09-02T01:14:43.847Z,8.91
2022-09-02T01:17:10.629Z,8.80
2022-09-02T01:19:44.918Z,8.56
2022-09-02T01:22:24.272Z,8.25
2022-09-02T01:24:51.810Z,8.21
2022-09-02T01:27:22.098Z,8.18
2022-09-02T01:29:58.440Z,8.17
2022-09-02T01:32:27.578Z,9.09
2022-09-02T01:34:54.214Z,8.74
2022-09-02T01:37:22.231Z,8.50
2022-09-02T01:39:50.156Z,8.48
2022-09-02T01:42:16.970Z,8.86
2022-09-02T01:44:43.963Z,8.85
2022-09-02T01:47:16.110Z,8.39
2022-09-02T01:49:44.793Z,8.05
2022-09-02T01:52:11.417Z,8.77
2022-09-02T01:54:38.906Z,9.42
2022-09-02T01:57:05.618Z,9.12
2022-09-02T01:59:32.307Z,8.97
2022-09-02T02:01:59.052Z,9.12
2022-09-02T02:04:26.673Z,8.59
2022-09-02T02:06:53.669Z,9.09
2022-09-02T02:09:22.387Z,8.62
2022-09-02T02:11:49.744Z,9.02
2022-09-02T02:14:16.746Z,9.34
2022-09-02T02:16:46.059Z,9.25
2022-09-02T02:19:12.726Z,8.98
2022-09-02T02:21:40.112Z,9.13
2022-09-02T02:24:08.178Z,8.82
2022-09-02T02:26:36.508Z,9.15
2022-09-02T02:29:04.459Z,8.97
2022-09-02T02:31:31.339Z,8.90
2022-09-02T02:33:58.268Z,8.92
2022-09-02T02:36:24.905Z,9.07
2022-09-02T02:38:51.737Z,9.15
2022-09-02T02:41:18.490Z,9.12
2022-09-02T02:43:45.298Z,9.13
2022-09-02T02:46:12.062Z,9.18
2022-09-02T02:48:38.765Z,9.16
2022-09-02T02:51:06.478Z,9.46
2022-09-02T02:53:34.745Z,9.31
2022-09-02T02:56:01.529Z,9.36
2022-09-02T02:58:28.524Z,9.43
2022-09-02T03:00:56.022Z,9.62
2022-09-02T03:03:23.178Z,9.12
2022-09-02T03:05:50.751Z,8.86
2022-09-02T03:08:19.549Z,8.66
2022-09-02T03:10:46.826Z,9.16
2022-09-02T03:13:13.901Z,9.59
2022-09-02T03:15:41.807Z,9.27
2022-09-02T03:18:09.166Z,8.93
2022-09-02T03:20:36.016Z,9.03
2022-09-02T03:23:02.742Z,9.06
2022-09-02T03:25:35.585Z,9.54
2022-09-02T03:28:04.187Z,9.11
2022-09-02T03:30:33.224Z,9.39
2022-09-02T03:33:04.072Z,9.24
2022-09-02T03:35:32.911Z,9.14
2022-09-02T03:38:00.754Z,9.73
2022-09-02T03:40:27.794Z,9.60
2022-09-02T03:42:59.333Z,9.99
2022-09-02T03:45:27.934Z,9.11
2022-09-02T03:47:54.620Z,9.28
2022-09-02T03:50:25.201Z,9.71
2022-09-02T03:52:52.377Z,9.65
2022-09-02T03:55:19.803Z,9.46
2022-09-02T03:57:47.338Z,9.59
2022-09-02T04:00:17.522Z,9.44
2022-09-02T04:02:44.768Z,9.75
2022-09-02T04:05:18.065Z,9.67
2022-09-02T04:07:47.002Z,9.46
2022-09-02T04:10:14.633Z,9.29
2022-09-02T04:12:41.479Z,9.72
2022-09-02T04:15:11.653Z,9.55
2022-09-02T04:17:40.710Z,9.52
2022-09-02T04:20:11.268Z,9.81
2022-09-02T04:22:38.343Z,9.58
2022-09-02T04:25:06.827Z,9.75
2022-09-02T04:27:34.927Z,9.24
2022-09-02T04:30:01.835Z,9.98
2022-09-02T04:32:28.521Z,9.88
2022-09-02T04:34:55.170Z,9.64
2022-09-02T04:37:21.796Z,9.59
2022-09-02T04:39:48.482Z,9.73
2022-09-02T04:42:15.163Z,9.93
2022-09-02T04:44:41.886Z,9.93
2022-09-02T04:47:08.571Z,10.02
2022-09-02T04:49:35.186Z,10.17
2022-09-02T04:52:01.887Z,9.96
2022-09-02T04:54:28.652Z,9.89
2022-09-02T04:56:55.348Z,9.90
2022-09-02T04:59:22.012Z,9.80
2022-09-02T05:01:48.730Z,9.88
2022-09-02T05:04:15.701Z,9.93
2022-09-02T05:06:44.553Z,10.07
2022-09-02T05:09:11.491Z,9.84
2022-09-02T05:11:38.228Z,9.33
2022-09-02T05:14:07.072Z,9.28
2022-09-02T05:16:37.849Z,9.24
2022-09-02T05:19:07.071Z,9.89
2022-09-02T05:21:34.174Z,9.70
2022-09-02T05:24:01.010Z,10.20
2022-09-02T05:26:27.703Z,10.27
2022-09-02T05:28:54.530Z,9.82
2022-09-02T05:31:21.954Z,9.97
2022-09-02T05:33:48.823Z,9.99
2022-09-02T05:36:19.440Z,9.84
2022-09-02T05:38:46.763Z,9.51
2022-09-02T05:41:22.419Z,9.67
2022-09-02T05:43:50.982Z,9.45
2022-09-02T05:46:20.619Z,9.40
2022-09-02T05:48:48.560Z,9.49
2022-09-02T05:51:15.255Z,9.59
2022-09-02T05:53:41.885Z,9.62
2022-09-02T05:56:08.584Z,10.29
2022-09-02T05:58:35.211Z,10.09
2022-09-02T06:01:08.830Z,11.45
2022-09-02T06:03:35.478Z,11.78
2022-09-02T06:06:06.581Z,10.25
2022-09-02T06:08:34.960Z,9.84
2022-09-02T06:11:03.799Z,9.43
2022-09-02T06:13:34.162Z,9.40
2022-09-02T06:16:00.937Z,9.52
2022-09-02T06:18:28.496Z,9.95
2022-09-02T06:20:55.391Z,9.28
2022-09-02T06:23:22.222Z,9.44
2022-09-02T06:25:51.626Z,9.65
2022-09-02T06:28:18.766Z,9.77
2022-09-02T06:30:46.948Z,9.99
2022-09-02T06:33:13.933Z,10.87
2022-09-02T06:35:44.302Z,11.23
2022-09-02T06:38:12.597Z,10.38
2022-09-02T06:40:54.652Z,10.13
2022-09-02T06:43:21.894Z,10.48
2022-09-02T06:45:48.612Z,10.69
2022-09-02T06:48:15.373Z,11.15
2022-09-02T06:50:45.940Z,10.84
2022-09-02T06:53:13.569Z,10.43
2022-09-02T06:55:43.470Z,10.45
2022-09-02T06:58:11.002Z,10.62
2022-09-02T07:00:39.834Z,11.00
2022-09-02T07:03:07.647Z,11.36
2022-09-02T07:05:34.314Z,11.36
2022-09-02T07:08:01.098Z,10.11
2022-09-02T07:10:27.776Z,10.11
2022-09-02T07:12:54.481Z,9.73
2022-09-02T07:15:21.115Z,9.29
2022-09-02T07:17:47.790Z,8.42
2022-09-02T07:20:14.616Z,8.56
2022-09-02T07:22:41.474Z,8.41
2022-09-02T07:25:09.683Z,8.56
2022-09-02T07:27:36.441Z,8.36
2022-09-02T07:30:04.747Z,8.38
2022-09-02T07:32:31.657Z,9.00
2022-09-02T07:34:58.300Z,8.75
2022-09-02T07:37:25.012Z,8.70
2022-09-02T07:39:51.645Z,8.20
2022-09-02T07:42:18.370Z,8.25
2022-09-02T07:44:45.132Z,8.58
2022-09-02T07:47:11.754Z,7.75
2022-09-02T07:52:25.819Z,8.29
2022-09-02T07:54:52.502Z,8.32
2022-09-02T07:57:19.409Z,8.78
2022-09-02T07:59:46.195Z,8.14
2022-09-02T08:02:12.842Z,8.55
2022-09-02T08:04:39.465Z,8.63
2022-09-02T08:07:07.230Z,8.65
2022-09-02T08:09:33.860Z,8.67
2022-09-02T08:12:00.638Z,8.29
2022-09-02T08:14:27.296Z,8.90
2022-09-02T08:16:57.265Z,8.73
2022-09-02T08:19:25.292Z,8.11
2022-09-02T08:21:52.246Z,8.51
2022-09-02T08:24:18.907Z,8.54
2022-09-02T08:26:45.542Z,9.35
2022-09-02T08:29:12.194Z,9.31
2022-09-02T08:31:39.193Z,9.28
2022-09-02T08:34:05.974Z,9.65
2022-09-02T08:36:32.629Z,8.96
2022-09-02T08:39:03.513Z,9.12
2022-09-02T08:41:41.446Z,9.20
2022-09-02T08:44:13.212Z,9.29
2022-09-02T08:46:40.890Z,9.09
2022-09-02T08:49:18.607Z,9.36
2022-09-02T08:51:48.013Z,8.47
2022-09-02T08:54:34.324Z,9.05
2022-09-02T08:57:01.042Z,9.78
2022-09-02T08:59:31.401Z,9.54
2022-09-02T09:02:10.705Z,9.53
2022-09-02T09:05:05.326Z,9.06
2022-09-02T09:07:37.819Z,9.11
2022-09-02T09:10:23.178Z,9.32
2022-09-02T09:12:52.757Z,9.75
2022-09-02T09:15:38.180Z,10.08
2022-09-02T09:18:09.787Z,9.62
2022-09-02T09:20:42.781Z,10.09
2022-09-02T09:23:28.755Z,10.23
2022-09-02T09:26:17.057Z,10.62
2022-09-02T09:28:47.941Z,10.59
2022-09-02T09:31:18.942Z,10.16
2022-09-02T09:34:09.160Z,10.27
2022-09-02T09:36:41.908Z,9.81
2022-09-02T09:39:18.965Z,10.01
2022-09-02T09:41:47.099Z,10.35
2022-09-02T09:44:35.776Z,10.49
2022-09-02T09:47:13.659Z,10.08
2022-09-02T09:49:44.052Z,10.70
2022-09-02T09:52:10.702Z,11.06
2022-09-02T09:54:37.591Z,11.22
2022-09-02T09:57:21.623Z,10.92
2022-09-02T09:59:49.623Z,11.23
2022-09-02T10:02:27.994Z,11.55
2022-09-02T10:05:19.088Z,11.80
2022-09-02T10:07:56.011Z,11.33
2022-09-02T10:10:26.069Z,11.60
2022-09-02T10:12:56.995Z,12.54
2022-09-02T10:15:36.503Z,12.49
2022-09-02T10:18:19.649Z,13.03
2022-09-02T10:21:04.368Z,12.88
2022-09-02T10:23:38.456Z,12.89
2022-09-02T10:29:10.197Z,12.50
2022-09-02T10:31:50.570Z,11.91
2022-09-02T10:34:43.400Z,12.10
2022-09-02T10:37:23.382Z,12.20
2022-09-02T10:39:59.187Z,11.70
2022-09-02T10:42:39.008Z,12.13
2022-09-02T10:45:23.495Z,11.63
2022-09-02T10:48:13.427Z,11.53
2022-09-02T10:51:08.059Z,10.83
2022-09-02T10:53:44.887Z,10.50
2022-09-02T10:56:19.577Z,9.58
2022-09-02T10:58:55.626Z,9.39
2022-09-02T11:01:30.356Z,9.37
2022-09-02T11:04:09.518Z,9.55
2022-09-02T11:07:01.259Z,9.23
2022-09-02T11:12:37.573Z,9.08
2022-09-02T11:15:21.188Z,9.23
2022-09-02T11:18:09.231Z,9.89
2022-09-02T11:21:05.144Z,11.17
2022-09-02T11:23:46.490Z,10.62
2022-09-02T11:26:27.843Z,10.07
2022-09-02T11:29:20.817Z,10.20
2022-09-02T11:32:13.982Z,9.96
2022-09-02T11:34:56.421Z,9.02
2022-09-02T11:37:31.061Z,9.24
2022-09-02T11:40:30.579Z,8.63
2022-09-02T11:43:04.193Z,8.93
2022-09-02T11:46:08.135Z,8.76
2022-09-02T11:48:49.766Z,8.82
2022-09-02T11:51:38.222Z,8.73
2022-09-02T11:54:09.554Z,9.30
2022-09-02T11:56:43.471Z,8.89
2022-09-02T11:59:23.745Z,8.85
2022-09-02T12:01:54.404Z,8.38
2022-09-02T12:07:13.111Z,7.95
2022-09-02T12:09:48.869Z,7.72
2022-09-02T12:12:37.662Z,7.92
2022-09-02T12:15:04.359Z,7.80
2022-09-02T12:17:36.778Z,7.51
2022-09-02T12:20:10.138Z,7.92
2022-09-02T12:22:40.766Z,7.22
2022-09-02T12:25:26.733Z,7.82
2022-09-02T12:28:11.808Z,7.39
2022-09-02T12:30:55.226Z,7.02
2022-09-02T12:33:33.809Z,7.24
2022-09-02T12:36:01.449Z,7.63
2022-09-02T12:38:36.608Z,8.34
2022-09-02T12:41:07.996Z,8.68
2022-09-02T12:44:03.639Z,9.17
2022-09-02T12:46:42.372Z,8.65
2022-09-02T12:49:27.348Z,8.76
2022-09-02T12:52:00.587Z,8.25
2022-09-02T12:54:45.110Z,8.34
2022-09-02T12:57:11.749Z,8.52
2022-09-02T12:59:41.259Z,8.58
2022-09-02T13:02:30.430Z,8.78
2022-09-02T13:05:24.092Z,8.36
2022-09-02T13:08:09.160Z,8.56
2022-09-02T13:10:54.294Z,8.45
2022-09-02T13:13:39.511Z,7.83
2022-09-02T13:16:38.184Z,7.86
2022-09-02T13:19:19.830Z,8.28
2022-09-02T13:21:49.339Z,7.93
2022-09-02T13:24:42.228Z,7.84
2022-09-02T13:27:12.176Z,7.73
2022-09-02T13:29:57.247Z,9.35
2022-09-02T13:32:27.083Z,9.77
2022-09-02T13:34:57.508Z,9.59
2022-09-02T13:37:32.211Z,9.03
2022-09-02T13:40:03.845Z,9.46
2022-09-02T13:42:33.116Z,9.09
2022-09-02T13:45:09.756Z,9.30
2022-09-02T13:47:37.298Z,9.30
2022-09-02T13:50:05.949Z,8.99
2022-09-02T13:55:23.923Z,8.13
2022-09-02T13:57:59.140Z,7.37
2022-09-02T14:00:38.033Z,7.14
2022-09-02T14:03:07.664Z,6.96
2022-09-02T14:05:38.347Z,7.05
2022-09-02T14:08:11.373Z,6.84
2022-09-02T14:10:40.004Z,7.35
2022-09-02T14:13:08.915Z,7.77
2022-09-02T14:15:36.466Z,7.48
2022-09-02T14:18:18.396Z,7.59
2022-09-02T14:21:15.856Z,7.75
2022-09-02T14:23:52.135Z,7.92
2022-09-02T14:26:36.177Z,7.89
2022-09-02T14:29:07.652Z,8.28
2022-09-02T14:31:35.260Z,7.89
2022-09-02T14:34:02.161Z,8.07
2022-09-02T14:36:38.179Z,7.99
2022-09-02T14:39:16.955Z,8.75
2022-09-02T14:41:48.687Z,8.49
2022-09-02T14:44:23.537Z,8.31
2022-09-02T14:46:56.234Z,8.20
2022-09-02T14:49:36.702Z,8.10
2022-09-02T14:52:23.351Z,7.54
2022-09-02T14:54:52.845Z,7.60
2022-09-02T14:57:27.713Z,7.38
2022-09-02T14:59:56.544Z,7.53
2022-09-02T15:02:27.498Z,7.76
2022-09-02T15:04:59.948Z,7.55
2022-09-02T15:07:27.589Z,7.56
2022-09-02T15:09:54.883Z,7.91
2022-09-02T15:12:27.044Z,7.32
2022-09-02T15:14:54.750Z,6.79
2022-09-02T15:17:22.257Z,6.95
2022-09-02T15:19:50.771Z,6.71
2022-09-02T15:22:19.792Z,6.61
2022-09-02T15:24:46.516Z,7.09
2022-09-02T15:27:13.875Z,7.30
2022-09-02T15:29:40.841Z,7.18
2022-09-02T15:32:08.106Z,7.89
2022-09-02T15:34:35.195Z,7.98
2022-09-02T15:37:02.335Z,7.98
2022-09-02T15:39:29.993Z,8.25
2022-09-02T15:41:56.963Z,8.83
2022-09-02T15:44:25.024Z,8.89
2022-09-02T15:46:53.318Z,8.89
2022-09-02T15:49:21.141Z,8.78
2022-09-02T15:51:48.465Z,8.59
2022-09-02T15:54:17.374Z,8.66
2022-09-02T15:56:46.481Z,8.39
2022-09-02T15:59:16.024Z,8.17
2022-09-02T16:01:45.512Z,8.26
2022-09-02T16:04:13.831Z,8.12
2022-09-02T16:06:43.427Z,8.14
2022-09-02T16:09:12.864Z,8.05
2022-09-02T16:11:42.326Z,7.94
2022-09-02T16:14:10.554Z,7.52
2022-09-02T16:16:38.582Z,7.35
2022-09-02T16:19:06.674Z,6.64
2022-09-02T16:21:33.340Z,6.34
2022-09-02T16:24:00.084Z,6.00
2022-09-02T16:26:32.368Z,6.34
2022-09-02T16:29:05.761Z,6.17
2022-09-02T16:31:34.435Z,7.07
2022-09-02T16:34:09.755Z,7.63
2022-09-02T16:36:41.080Z,7.25
2022-09-02T16:39:08.571Z,7.18
2022-09-02T16:41:38.145Z,7.25
2022-09-02T16:44:11.151Z,7.22
2022-09-02T16:46:38.451Z,7.34
2022-09-02T16:49:05.146Z,7.43
2022-09-02T16:51:32.106Z,7.62
2022-09-02T16:54:02.238Z,7.32
2022-09-02T16:56:29.641Z,7.38
2022-09-02T16:59:00.537Z,7.29
2022-09-02T17:01:32.105Z,7.15
2022-09-02T17:03:59.733Z,6.86
2022-09-02T17:06:27.150Z,7.95
2022-09-02T17:08:54.136Z,8.17
2022-09-02T17:11:23.627Z,8.02
2022-09-02T17:13:55.118Z,7.74
2022-09-02T17:16:24.662Z,7.80
2022-09-02T17:18:51.362Z,7.73
2022-09-02T17:21:26.498Z,7.85
2022-09-02T17:23:54.859Z,8.40
2022-09-02T17:26:25.801Z,8.44
2022-09-02T17:28:56.505Z,8.72
2022-09-02T17:31:29.087Z,8.68
2022-09-02T17:34:01.514Z,8.28
2022-09-02T17:36:30.513Z,8.02
2022-09-02T17:39:00.317Z,7.49
2022-09-02T17:41:27.882Z,8.36
2022-09-02T17:43:55.380Z,7.39
2022-09-02T17:46:22.307Z,7.37
2022-09-02T17:49:15.336Z,8.00
2022-09-02T17:51:35.820Z,7.81
2022-09-02T17:54:02.484Z,7.77
2022-09-02T17:56:57.684Z,8.27
2022-09-02T17:59:59.628Z,7.87
2022-09-02T18:02:55.799Z,7.61
2022-09-02T18:05:53.406Z,8.34
2022-09-02T18:08:45.471Z,7.80
2022-09-02T18:11:12.301Z,8.57
2022-09-02T18:14:13.568Z,8.55
2022-09-02T18:17:08.328Z,8.98
2022-09-02T18:19:53.318Z,8.51
2022-09-02T18:22:22.876Z,8.05
2022-09-02T18:25:11.051Z,7.70
2022-09-02T18:27:55.163Z,7.17
2022-09-02T18:30:41.014Z,7.76
2022-09-02T18:33:19.913Z,7.73
2022-09-02T18:36:24.597Z,9.68
2022-09-02T18:39:17.243Z,9.11
2022-09-02T18:42:21.147Z,8.90
2022-09-02T18:44:59.670Z,8.24
2022-09-02T18:47:47.398Z,8.25
2022-09-02T18:50:47.181Z,8.02
2022-09-02T18:53:19.320Z,7.34
2022-09-02T18:55:51.567Z,7.68
2022-09-02T18:58:26.837Z,7.56
2022-09-02T19:01:22.452Z,7.25
2022-09-02T19:03:49.210Z,7.19
2022-09-02T19:06:24.477Z,7.34
2022-09-02T19:09:04.755Z,7.67
2022-09-02T19:11:37.275Z,7.12
2022-09-02T19:14:26.923Z,7.17
2022-09-02T19:16:55.555Z,7.57
2022-09-02T19:19:22.328Z,7.42
2022-09-02T19:21:50.750Z,7.29
2022-09-02T19:24:48.736Z,7.75
2022-09-02T19:27:22.846Z,7.40
2022-09-02T19:30:02.101Z,7.28
2022-09-02T19:32:33.488Z,7.58
2022-09-02T19:35:05.841Z,7.41
2022-09-02T19:37:32.497Z,7.92
2022-09-02T19:40:12.087Z,7.52
2022-09-02T19:42:38.908Z,7.98
2022-09-02T19:45:05.841Z,7.76
2022-09-02T19:50:21.596Z,7.69
2022-09-02T19:52:48.876Z,7.75
2022-09-02T19:55:17.964Z,8.30
2022-09-02T19:57:45.982Z,7.51
2022-09-02T20:00:13.751Z,8.10
2022-09-02T20:02:43.090Z,7.35
2022-09-02T20:05:12.680Z,7.45
2022-09-02T20:07:39.815Z,7.36
2022-09-02T20:10:08.384Z,7.30
2022-09-02T20:12:36.054Z,7.61
2022-09-02T20:15:04.656Z,7.41
2022-09-02T20:17:32.483Z,7.04
2022-09-02T20:20:00.057Z,7.28
2022-09-02T20:22:29.306Z,7.77
2022-09-02T20:24:56.768Z,7.54
2022-09-02T20:27:40.922Z,7.67
2022-09-02T20:30:14.412Z,7.40
2022-09-02T20:32:46.993Z,7.56
2022-09-02T20:35:44.524Z,7.70
2022-09-02T20:38:38.550Z,7.83
2022-09-02T20:41:42.808Z,7.58
2022-09-02T20:44:36.813Z,7.32
2022-09-02T20:47:28.214Z,7.54
2022-09-02T20:50:09.746Z,7.44
2022-09-02T20:53:25.289Z,7.96
2022-09-02T20:56:04.039Z,8.16
2022-09-02T20:58:53.411Z,8.50
2022-09-02T21:01:31.510Z,8.70
2022-09-02T21:04:16.348Z,9.15
2022-09-02T21:06:56.174Z,8.73
2022-09-02T21:09:34.660Z,8.92
2022-09-02T21:12:26.251Z,8.85
2022-09-02T21:15:23.313Z,9.02
2022-09-02T21:18:02.512Z,9.37
2022-09-02T21:20:46.972Z,9.08
2022-09-02T21:23:37.596Z,8.88
2022-09-02T21:26:18.284Z,9.72
2022-09-02T21:29:02.984Z,10.20
2022-09-02T21:31:41.203Z,10.25
2022-09-02T21:34:18.505Z,10.40
2022-09-02T21:36:46.708Z,10.58
2022-09-02T21:39:17.605Z,11.25
2022-09-02T21:41:55.382Z,11.02
2022-09-02T21:44:39.205Z,11.21
2022-09-02T21:47:38.007Z,9.33
2022-09-02T21:50:10.544Z,7.59
2022-09-02T21:52:43.166Z,6.49
2022-09-02T21:55:32.045Z,5.66
2022-09-02T21:58:01.206Z,5.49
2022-09-02T22:00:28.044Z,5.35
2022-09-02T22:03:00.370Z,5.12
2022-09-02T22:05:39.201Z,5.79
2022-09-02T22:08:33.670Z,5.60
2022-09-02T22:11:21.367Z,6.06
2022-09-02T22:13:48.065Z,6.54
2022-09-02T22:16:20.323Z,6.18
2022-09-02T22:18:55.094Z,6.15
2022-09-02T22:21:41.766Z,6.34
2022-09-02T22:24:08.486Z,6.16
2022-09-02T22:26:49.313Z,6.13
2022-09-02T22:29:22.014Z,6.38
2022-09-02T22:31:50.218Z,6.37
2022-09-02T22:34:17.028Z,7.07
2022-09-02T22:36:51.971Z,6.61
2022-09-02T22:39:30.422Z,7.22
2022-09-02T22:42:06.837Z,6.78
2022-09-02T22:44:46.118Z,6.96
2022-09-02T22:47:12.791Z,7.43
2022-09-02T22:49:53.923Z,7.41
2022-09-02T22:52:38.257Z,7.47
2022-09-02T22:55:06.031Z,7.62
2022-09-02T22:58:10.848Z,8.11
2022-09-02T23:00:56.551Z,8.32
2022-09-02T23:03:28.819Z,8.22
2022-09-02T23:06:07.545Z,8.58
2022-09-02T23:08:34.289Z,8.93
2022-09-02T23:11:16.175Z,8.71
2022-09-02T23:14:01.124Z,9.34
2022-09-02T23:16:51.625Z,9.83
2022-09-02T23:19:26.404Z,10.26
2022-09-02T23:22:30.383Z,10.75
2022-09-02T23:25:10.583Z,11.11
2022-09-02T23:27:58.152Z,11.14
2022-09-02T23:30:24.794Z,10.29
2022-09-02T23:33:13.152Z,10.12
2022-09-02T23:35:59.605Z,11.31
2022-09-02T23:38:47.945Z,12.33
2022-09-02T23:41:15.015Z,12.69
2022-09-02T23:43:42.592Z,12.06
2022-09-02T23:46:30.575Z,11.95
2022-09-02T23:49:10.772Z,11.84
2022-09-02T23:52:05.596Z,12.01
2022-09-02T23:54:53.322Z,11.91
2022-09-02T23:57:31.324Z,11.66
